Wilson, Arkansas
Current Conditions -  °F | °C
As of 5:50 PM on Sunday 23 Nov 2014 (Local Time) from KNQA Reporting Station
Overcast Overcast  
Wind Chill: 59°   Ceiling: 1900
Heat Index: 59°   Visibility: 10mi
Dew Point: 59°   Wind: 9mph
Humidity: 100%   Direction: 210°SSW
Pressure: 29.39"   Gusts: NA
Location:  35.57°N, 90.04°W
Report Text: KNQA 232350Z 21008KT 10SM BKN019 OVC025 15/15 A2939
Loading
Personal Weather Stations






























Interactive Weather Map New forecast layout! Learn more

10-Day Weather Forecast

Advertisements
Track Severe Weather on mobile